createdAt,value
2023-01-23T06:50:14.246Z,20.50
2023-01-23T06:53:18.798Z,22.77
2023-01-23T06:56:20.602Z,22.77
2023-01-23T06:59:22.518Z,23.88
2023-01-23T07:02:24.360Z,23.63
2023-01-23T07:05:26.155Z,23.80
2023-01-23T07:08:28.694Z,25.98
2023-01-23T07:11:31.092Z,24.77
2023-01-23T07:14:33.015Z,23.77
2023-01-23T07:17:35.027Z,26.00
2023-01-23T07:20:38.346Z,27.23
2023-01-23T07:23:40.571Z,25.33
2023-01-23T07:26:42.421Z,23.45
2023-01-23T07:29:45.037Z,25.35
2023-01-23T07:32:46.853Z,24.70
2023-01-23T07:35:50.088Z,25.05
2023-01-23T07:38:51.937Z,24.58
2023-01-23T07:41:53.913Z,25.77
2023-01-23T07:44:55.809Z,24.98
2023-01-23T07:47:57.508Z,23.95
2023-01-23T07:51:03.260Z,22.17
2023-01-23T07:54:05.921Z,24.25
2023-01-23T07:57:07.817Z,25.08
2023-01-23T08:00:11.031Z,27.20
2023-01-23T08:03:13.249Z,24.58
2023-01-23T08:06:15.546Z,24.52
2023-01-23T08:09:17.396Z,24.92
2023-01-23T08:12:19.869Z,25.23
2023-01-23T08:15:21.744Z,26.67
2023-01-23T08:18:23.930Z,25.50
2023-01-23T08:21:25.727Z,24.13
2023-01-23T08:24:27.539Z,23.77
2023-01-23T08:27:30.312Z,26.23
2023-01-23T08:30:32.199Z,21.83
2023-01-23T08:33:34.491Z,24.65
2023-01-23T08:36:36.438Z,24.58
2023-01-23T08:39:38.246Z,24.73
2023-01-23T08:42:40.188Z,22.77
2023-01-23T08:45:45.807Z,24.83
2023-01-23T08:48:47.941Z,24.60
2023-01-23T08:51:49.795Z,24.77
2023-01-23T08:54:51.833Z,24.13
2023-01-23T08:57:54.717Z,22.73
2023-01-23T09:00:57.472Z,23.88
2023-01-23T09:03:59.715Z,23.85
2023-01-23T09:07:01.818Z,23.27
2023-01-23T09:10:06.132Z,24.77
2023-01-23T09:13:09.433Z,24.50
2023-01-23T09:16:13.302Z,24.05
2023-01-23T09:19:15.935Z,22.73
2023-01-23T09:22:18.613Z,21.63
2023-01-23T09:25:20.891Z,21.73
2023-01-23T09:28:23.153Z,20.55
2023-01-23T09:31:25.461Z,19.15
2023-01-23T09:34:28.790Z,18.75
2023-01-23T09:37:58.453Z,19.20
2023-01-23T09:41:09.850Z,18.40
2023-01-23T09:44:19.303Z,18.75
2023-01-23T09:47:31.913Z,17.73
2023-01-23T09:50:38.169Z,18.23
2023-01-23T09:53:42.575Z,18.40
2023-01-23T09:56:47.351Z,18.83
2023-01-23T10:00:01.196Z,18.20
2023-01-23T10:03:12.281Z,19.60
2023-01-23T10:06:47.733Z,19.42
2023-01-23T10:10:29.728Z,20.20
2023-01-23T10:13:55.847Z,22.52
2023-01-23T10:17:14.094Z,23.30
2023-01-23T10:20:42.526Z,24.38
2023-01-23T10:23:57.902Z,25.27
2023-01-23T10:30:19.179Z,25.95
2023-01-23T10:33:25.101Z,24.13
2023-01-23T10:36:47.604Z,24.38
2023-01-23T10:40:05.374Z,23.30
2023-01-23T10:43:16.668Z,23.05
2023-01-23T10:46:23.723Z,21.45
2023-01-23T10:49:35.297Z,21.67
2023-01-23T10:52:43.023Z,22.13
2023-01-23T10:55:46.816Z,21.90
2023-01-23T10:58:49.589Z,22.65
2023-01-23T11:02:24.168Z,20.92
2023-01-23T11:05:52.558Z,20.77
2023-01-23T11:09:00.745Z,21.00
2023-01-23T11:12:05.781Z,21.15
2023-01-23T11:18:39.130Z,18.58
2023-01-23T11:21:58.680Z,19.10
2023-01-23T11:25:02.738Z,18.60
2023-01-23T11:28:41.465Z,19.33
2023-01-23T11:31:43.461Z,17.05
2023-01-23T11:34:50.928Z,17.70
2023-01-23T11:37:55.946Z,16.40
2023-01-23T11:47:37.280Z,16.85
2023-01-23T11:50:56.207Z,14.65
2023-01-23T11:54:41.465Z,15.93
2023-01-23T11:58:06.681Z,16.27
2023-01-23T12:01:49.327Z,16.08
2023-01-23T12:05:22.503Z,16.42
2023-01-23T12:09:04.672Z,15.85
2023-01-23T12:12:27.475Z,15.65
2023-01-23T12:15:40.918Z,18.35
2023-01-23T12:19:11.241Z,16.60
2023-01-23T12:22:21.652Z,16.95
2023-01-23T12:25:42.673Z,18.15
2023-01-23T12:29:04.645Z,17.55
2023-01-23T12:32:33.953Z,18.05
2023-01-23T12:36:05.653Z,16.25
2023-01-23T12:39:23.157Z,17.30
2023-01-23T12:42:34.638Z,18.40
2023-01-23T12:45:40.265Z,17.35
2023-01-23T12:48:55.754Z,16.85
2023-01-23T12:52:06.265Z,16.33
2023-01-23T12:55:18.361Z,18.05
2023-01-23T12:58:20.891Z,16.20
2023-01-23T13:01:40.120Z,16.30
2023-01-23T13:05:11.995Z,16.67
2023-01-23T13:08:43.548Z,16.38
2023-01-23T13:12:11.555Z,16.52
2023-01-23T13:15:19.101Z,15.73
2023-01-23T13:18:28.274Z,15.68
2023-01-23T13:21:50.200Z,15.73
2023-01-23T13:25:17.664Z,15.77
2023-01-23T13:28:44.706Z,17.00
2023-01-23T13:31:50.510Z,16.65
2023-01-23T13:34:52.433Z,19.15
2023-01-23T13:37:54.533Z,16.65
2023-01-23T13:41:04.623Z,17.17
2023-01-23T13:44:40.182Z,16.58
2023-01-23T14:26:04.654Z,15.52
2023-01-23T14:29:22.258Z,15.85
2023-01-23T14:32:25.378Z,16.25
2023-01-23T14:35:31.263Z,17.05
2023-01-23T14:38:34.442Z,16.92
2023-01-23T14:41:41.616Z,16.70
2023-01-23T14:44:46.948Z,15.57
2023-01-23T14:47:59.680Z,17.20
2023-01-23T14:51:19.649Z,15.95
2023-01-23T14:54:23.322Z,15.18
2023-01-23T14:57:27.029Z,16.05
2023-01-23T15:00:29.377Z,15.95
2023-01-23T15:04:00.227Z,16.10
2023-01-23T15:07:02.693Z,15.43
2023-01-23T15:10:05.105Z,16.45
2023-01-23T15:13:13.359Z,15.88
2023-01-23T15:16:20.514Z,16.00
2023-01-23T15:19:24.274Z,16.55
2023-01-23T15:22:28.967Z,17.13
2023-01-23T15:25:33.625Z,16.40
2023-01-23T15:28:40.982Z,16.45
2023-01-23T15:31:46.509Z,16.60
2023-01-23T15:34:57.692Z,16.60
2023-01-23T15:38:04.760Z,19.17
2023-01-23T15:41:10.719Z,15.80
2023-01-23T15:44:16.584Z,16.00
2023-01-23T15:47:18.342Z,17.02
2023-01-23T15:50:21.728Z,16.60
2023-01-23T15:53:23.407Z,16.92
2023-01-23T15:56:29.361Z,16.35
2023-01-23T15:59:33.987Z,16.55
2023-01-23T16:02:39.407Z,17.15
2023-01-23T16:05:46.032Z,16.10
2023-01-23T16:08:55.063Z,16.70
2023-01-23T16:12:02.972Z,16.45
2023-01-23T16:15:14.297Z,16.40
2023-01-23T16:18:16.123Z,16.50
2023-01-23T16:21:20.785Z,16.90
2023-01-23T16:24:24.055Z,16.75
2023-01-23T16:27:27.683Z,17.15
2023-01-23T16:30:29.662Z,17.27
2023-01-23T16:33:31.483Z,15.85
2023-01-23T16:36:33.169Z,15.63
2023-01-23T16:39:35.046Z,15.75
2023-01-23T16:42:36.903Z,16.20
2023-01-23T16:45:38.690Z,16.42
2023-01-23T16:48:40.408Z,16.17
2023-01-23T16:51:48.722Z,17.30
2023-01-23T16:54:52.908Z,14.48
2023-01-23T16:57:56.615Z,15.77
